sensor_id;sensor_type;location;lat;lon;timestamp;P1;durP1;ratioP1;P2;durP2;ratioP2
17420;SDS011;8828;48.800;9.540;2022-12-18T00:00:05;46.33;;;22.00;;
17420;SDS011;8828;48.800;9.540;2022-12-18T00:02:34;44.20;;;20.77;;
17420;SDS011;8828;48.800;9.540;2022-12-18T00:05:03;45.90;;;20.73;;
17420;SDS011;8828;48.800;9.540;2022-12-18T00:07:31;46.60;;;21.57;;
17420;SDS011;8828;48.800;9.540;2022-12-18T00:09:59;41.83;;;20.47;;
17420;SDS011;8828;48.800;9.540;2022-12-18T00:12:27;38.33;;;18.53;;
17420;SDS011;8828;48.800;9.540;2022-12-18T00:14:55;38.63;;;19.60;;
17420;SDS011;8828;48.800;9.540;2022-12-18T00:17:24;33.47;;;17.70;;
17420;SDS011;8828;48.800;9.540;2022-12-18T00:19:52;35.97;;;17.37;;
17420;SDS011;8828;48.800;9.540;2022-12-18T00:22:20;37.00;;;17.53;;
17420;SDS011;8828;48.800;9.540;2022-12-18T00:24:48;40.70;;;18.40;;
17420;SDS011;8828;48.800;9.540;2022-12-18T00:27:16;37.40;;;17.53;;
17420;SDS011;8828;48.800;9.540;2022-12-18T00:29:44;36.63;;;16.67;;
17420;SDS011;8828;48.800;9.540;2022-12-18T00:32:12;33.00;;;16.63;;
17420;SDS011;8828;48.800;9.540;2022-12-18T00:34:41;35.63;;;16.70;;
17420;SDS011;8828;48.800;9.540;2022-12-18T00:37:09;35.00;;;16.30;;
17420;SDS011;8828;48.800;9.540;2022-12-18T00:39:45;34.37;;;16.30;;
17420;SDS011;8828;48.800;9.540;2022-12-18T00:42:14;37.93;;;18.67;;
17420;SDS011;8828;48.800;9.540;2022-12-18T00:45:00;39.00;;;18.93;;
17420;SDS011;8828;48.800;9.540;2022-12-18T00:47:34;43.13;;;18.73;;
17420;SDS011;8828;48.800;9.540;2022-12-18T00:50:04;37.80;;;17.73;;
17420;SDS011;8828;48.800;9.540;2022-12-18T00:52:32;37.77;;;18.30;;
17420;SDS011;8828;48.800;9.540;2022-12-18T00:55:00;40.60;;;18.30;;
17420;SDS011;8828;48.800;9.540;2022-12-18T00:57:31;35.73;;;18.30;;
17420;SDS011;8828;48.800;9.540;2022-12-18T00:59:59;36.30;;;17.37;;
17420;SDS011;8828;48.800;9.540;2022-12-18T01:02:27;32.30;;;17.10;;
17420;SDS011;8828;48.800;9.540;2022-12-18T01:04:56;33.07;;;17.13;;
17420;SDS011;8828;48.800;9.540;2022-12-18T01:07:25;39.03;;;17.77;;
17420;SDS011;8828;48.800;9.540;2022-12-18T01:09:53;36.83;;;17.80;;
17420;SDS011;8828;48.800;9.540;2022-12-18T01:12:21;32.07;;;17.60;;
17420;SDS011;8828;48.800;9.540;2022-12-18T01:14:49;36.53;;;17.83;;
17420;SDS011;8828;48.800;9.540;2022-12-18T01:17:17;39.80;;;17.87;;
17420;SDS011;8828;48.800;9.540;2022-12-18T01:19:45;39.30;;;18.53;;
17420;SDS011;8828;48.800;9.540;2022-12-18T01:22:13;35.30;;;17.33;;
17420;SDS011;8828;48.800;9.540;2022-12-18T01:24:42;34.43;;;17.07;;
17420;SDS011;8828;48.800;9.540;2022-12-18T01:27:10;35.17;;;17.07;;
17420;SDS011;8828;48.800;9.540;2022-12-18T01:29:38;37.80;;;17.83;;
17420;SDS011;8828;48.800;9.540;2022-12-18T01:32:07;41.30;;;18.40;;
17420;SDS011;8828;48.800;9.540;2022-12-18T01:34:35;40.10;;;17.40;;
17420;SDS011;8828;48.800;9.540;2022-12-18T01:37:04;36.13;;;17.17;;
17420;SDS011;8828;48.800;9.540;2022-12-18T01:39:32;34.90;;;17.30;;
17420;SDS011;8828;48.800;9.540;2022-12-18T01:42:03;37.20;;;17.73;;
17420;SDS011;8828;48.800;9.540;2022-12-18T01:44:53;37.00;;;16.90;;
17420;SDS011;8828;48.800;9.540;2022-12-18T01:47:28;35.77;;;16.20;;
17420;SDS011;8828;48.800;9.540;2022-12-18T01:50:00;41.47;;;17.80;;
17420;SDS011;8828;48.800;9.540;2022-12-18T01:52:32;35.80;;;17.57;;
17420;SDS011;8828;48.800;9.540;2022-12-18T01:55:02;35.83;;;17.10;;
17420;SDS011;8828;48.800;9.540;2022-12-18T01:57:33;34.40;;;16.33;;
17420;SDS011;8828;48.800;9.540;2022-12-18T02:00:04;32.43;;;16.23;;
17420;SDS011;8828;48.800;9.540;2022-12-18T02:02:34;31.23;;;16.07;;
17420;SDS011;8828;48.800;9.540;2022-12-18T02:05:03;34.83;;;16.47;;
17420;SDS011;8828;48.800;9.540;2022-12-18T02:07:35;35.00;;;16.43;;
17420;SDS011;8828;48.800;9.540;2022-12-18T02:10:12;36.97;;;16.30;;
17420;SDS011;8828;48.800;9.540;2022-12-18T02:12:50;37.40;;;15.90;;
17420;SDS011;8828;48.800;9.540;2022-12-18T02:15:24;35.37;;;16.57;;
17420;SDS011;8828;48.800;9.540;2022-12-18T02:17:58;31.70;;;15.30;;
17420;SDS011;8828;48.800;9.540;2022-12-18T02:20:32;30.13;;;15.07;;
17420;SDS011;8828;48.800;9.540;2022-12-18T02:23:10;33.80;;;15.10;;
17420;SDS011;8828;48.800;9.540;2022-12-18T02:25:57;32.67;;;15.70;;
17420;SDS011;8828;48.800;9.540;2022-12-18T02:28:35;30.43;;;14.57;;
17420;SDS011;8828;48.800;9.540;2022-12-18T02:31:07;27.27;;;14.37;;
17420;SDS011;8828;48.800;9.540;2022-12-18T02:33:40;27.27;;;14.20;;
17420;SDS011;8828;48.800;9.540;2022-12-18T02:36:10;29.03;;;14.90;;
17420;SDS011;8828;48.800;9.540;2022-12-18T02:38:39;28.30;;;13.37;;
17420;SDS011;8828;48.800;9.540;2022-12-18T02:41:09;27.33;;;13.43;;
17420;SDS011;8828;48.800;9.540;2022-12-18T02:43:38;25.23;;;13.00;;
17420;SDS011;8828;48.800;9.540;2022-12-18T02:46:23;29.50;;;13.50;;
17420;SDS011;8828;48.800;9.540;2022-12-18T02:48:55;28.43;;;13.30;;
17420;SDS011;8828;48.800;9.540;2022-12-18T02:51:31;28.17;;;13.90;;
17420;SDS011;8828;48.800;9.540;2022-12-18T02:54:06;28.97;;;13.87;;
17420;SDS011;8828;48.800;9.540;2022-12-18T02:56:40;29.87;;;14.00;;
17420;SDS011;8828;48.800;9.540;2022-12-18T02:59:15;30.13;;;13.90;;
17420;SDS011;8828;48.800;9.540;2022-12-18T03:01:49;33.37;;;15.97;;
17420;SDS011;8828;48.800;9.540;2022-12-18T03:04:25;38.87;;;17.37;;
17420;SDS011;8828;48.800;9.540;2022-12-18T03:06:56;29.27;;;15.67;;
17420;SDS011;8828;48.800;9.540;2022-12-18T03:09:29;34.33;;;16.73;;
17420;SDS011;8828;48.800;9.540;2022-12-18T03:12:04;38.17;;;16.30;;
17420;SDS011;8828;48.800;9.540;2022-12-18T03:14:53;36.20;;;15.77;;
17420;SDS011;8828;48.800;9.540;2022-12-18T03:17:25;32.87;;;15.47;;
17420;SDS011;8828;48.800;9.540;2022-12-18T03:19:56;33.37;;;14.60;;
17420;SDS011;8828;48.800;9.540;2022-12-18T03:22:29;28.90;;;13.53;;
17420;SDS011;8828;48.800;9.540;2022-12-18T03:24:59;27.07;;;12.97;;
17420;SDS011;8828;48.800;9.540;2022-12-18T03:27:31;28.07;;;13.17;;
17420;SDS011;8828;48.800;9.540;2022-12-18T03:30:03;24.20;;;12.80;;
17420;SDS011;8828;48.800;9.540;2022-12-18T03:32:36;28.07;;;13.17;;
17420;SDS011;8828;48.800;9.540;2022-12-18T03:35:08;26.20;;;12.80;;
17420;SDS011;8828;48.800;9.540;2022-12-18T03:37:40;31.67;;;13.97;;
17420;SDS011;8828;48.800;9.540;2022-12-18T03:40:08;30.73;;;13.37;;
17420;SDS011;8828;48.800;9.540;2022-12-18T03:42:39;24.87;;;12.43;;
17420;SDS011;8828;48.800;9.540;2022-12-18T03:45:16;22.23;;;11.67;;
17420;SDS011;8828;48.800;9.540;2022-12-18T03:47:52;23.40;;;12.10;;
17420;SDS011;8828;48.800;9.540;2022-12-18T03:50:27;24.23;;;11.53;;
17420;SDS011;8828;48.800;9.540;2022-12-18T03:53:05;25.20;;;12.73;;
17420;SDS011;8828;48.800;9.540;2022-12-18T03:55:44;24.47;;;11.77;;
17420;SDS011;8828;48.800;9.540;2022-12-18T03:58:17;23.37;;;12.10;;
17420;SDS011;8828;48.800;9.540;2022-12-18T04:00:47;25.73;;;12.03;;
17420;SDS011;8828;48.800;9.540;2022-12-18T04:03:17;25.47;;;12.10;;
17420;SDS011;8828;48.800;9.540;2022-12-18T04:05:53;21.27;;;11.23;;
17420;SDS011;8828;48.800;9.540;2022-12-18T04:08:22;24.00;;;11.30;;
17420;SDS011;8828;48.800;9.540;2022-12-18T04:10:51;28.13;;;12.63;;
17420;SDS011;8828;48.800;9.540;2022-12-18T04:13:24;27.63;;;11.80;;
17420;SDS011;8828;48.800;9.540;2022-12-18T04:15:56;24.67;;;12.03;;
17420;SDS011;8828;48.800;9.540;2022-12-18T04:18:24;26.33;;;12.03;;
17420;SDS011;8828;48.800;9.540;2022-12-18T04:20:52;28.77;;;12.70;;
17420;SDS011;8828;48.800;9.540;2022-12-18T04:23:20;30.20;;;13.27;;
17420;SDS011;8828;48.800;9.540;2022-12-18T04:25:49;30.30;;;12.87;;
17420;SDS011;8828;48.800;9.540;2022-12-18T04:28:17;22.00;;;11.40;;
17420;SDS011;8828;48.800;9.540;2022-12-18T04:30:46;21.97;;;10.77;;
17420;SDS011;8828;48.800;9.540;2022-12-18T04:33:17;24.57;;;11.23;;
17420;SDS011;8828;48.800;9.540;2022-12-18T04:35:46;25.47;;;10.80;;
17420;SDS011;8828;48.800;9.540;2022-12-18T04:38:14;22.90;;;10.97;;
17420;SDS011;8828;48.800;9.540;2022-12-18T04:40:41;25.27;;;11.63;;
17420;SDS011;8828;48.800;9.540;2022-12-18T04:43:10;22.50;;;10.63;;
17420;SDS011;8828;48.800;9.540;2022-12-18T04:45:38;21.87;;;11.17;;
17420;SDS011;8828;48.800;9.540;2022-12-18T04:48:08;24.77;;;11.63;;
17420;SDS011;8828;48.800;9.540;2022-12-18T04:50:36;22.47;;;12.07;;
17420;SDS011;8828;48.800;9.540;2022-12-18T04:53:06;24.70;;;11.47;;
17420;SDS011;8828;48.800;9.540;2022-12-18T04:55:35;21.33;;;10.60;;
17420;SDS011;8828;48.800;9.540;2022-12-18T04:58:03;21.97;;;10.60;;
17420;SDS011;8828;48.800;9.540;2022-12-18T05:00:32;23.73;;;11.43;;
17420;SDS011;8828;48.800;9.540;2022-12-18T05:03:00;30.30;;;11.70;;
17420;SDS011;8828;48.800;9.540;2022-12-18T05:05:30;24.10;;;11.43;;
17420;SDS011;8828;48.800;9.540;2022-12-18T05:07:59;22.27;;;11.13;;
17420;SDS011;8828;48.800;9.540;2022-12-18T05:10:29;22.90;;;11.13;;
17420;SDS011;8828;48.800;9.540;2022-12-18T05:13:03;22.30;;;10.83;;
17420;SDS011;8828;48.800;9.540;2022-12-18T05:15:32;25.97;;;12.13;;
17420;SDS011;8828;48.800;9.540;2022-12-18T05:18:00;24.37;;;11.73;;
17420;SDS011;8828;48.800;9.540;2022-12-18T05:20:31;23.77;;;11.67;;
17420;SDS011;8828;48.800;9.540;2022-12-18T05:22:59;25.20;;;11.20;;
17420;SDS011;8828;48.800;9.540;2022-12-18T05:25:26;26.37;;;11.60;;
17420;SDS011;8828;48.800;9.540;2022-12-18T05:27:55;24.73;;;11.60;;
17420;SDS011;8828;48.800;9.540;2022-12-18T05:30:23;22.50;;;10.97;;
17420;SDS011;8828;48.800;9.540;2022-12-18T05:32:51;23.17;;;11.80;;
17420;SDS011;8828;48.800;9.540;2022-12-18T05:35:19;25.47;;;11.43;;
17420;SDS011;8828;48.800;9.540;2022-12-18T05:37:48;26.37;;;11.73;;
17420;SDS011;8828;48.800;9.540;2022-12-18T05:40:16;28.00;;;11.30;;
17420;SDS011;8828;48.800;9.540;2022-12-18T05:42:44;24.80;;;11.50;;
17420;SDS011;8828;48.800;9.540;2022-12-18T05:45:12;28.60;;;12.60;;
17420;SDS011;8828;48.800;9.540;2022-12-18T05:47:40;26.93;;;12.00;;
17420;SDS011;8828;48.800;9.540;2022-12-18T05:50:08;24.13;;;11.40;;
17420;SDS011;8828;48.800;9.540;2022-12-18T05:52:36;27.13;;;11.70;;
17420;SDS011;8828;48.800;9.540;2022-12-18T05:55:06;20.80;;;10.37;;
17420;SDS011;8828;48.800;9.540;2022-12-18T05:57:34;26.67;;;12.20;;
17420;SDS011;8828;48.800;9.540;2022-12-18T06:00:02;24.77;;;11.33;;
17420;SDS011;8828;48.800;9.540;2022-12-18T06:02:31;23.77;;;10.17;;
17420;SDS011;8828;48.800;9.540;2022-12-18T06:04:58;22.97;;;11.13;;
17420;SDS011;8828;48.800;9.540;2022-12-18T06:07:26;23.20;;;11.17;;
17420;SDS011;8828;48.800;9.540;2022-12-18T06:09:54;26.33;;;11.97;;
17420;SDS011;8828;48.800;9.540;2022-12-18T06:12:24;23.93;;;12.13;;
17420;SDS011;8828;48.800;9.540;2022-12-18T06:14:52;24.77;;;10.93;;
17420;SDS011;8828;48.800;9.540;2022-12-18T06:17:20;24.37;;;10.97;;
17420;SDS011;8828;48.800;9.540;2022-12-18T06:19:48;24.60;;;11.23;;
17420;SDS011;8828;48.800;9.540;2022-12-18T06:22:16;22.70;;;11.43;;
17420;SDS011;8828;48.800;9.540;2022-12-18T06:24:44;28.33;;;11.60;;
17420;SDS011;8828;48.800;9.540;2022-12-18T06:27:12;26.23;;;10.80;;
17420;SDS011;8828;48.800;9.540;2022-12-18T06:29:42;20.53;;;10.83;;
17420;SDS011;8828;48.800;9.540;2022-12-18T06:32:10;25.00;;;12.07;;
17420;SDS011;8828;48.800;9.540;2022-12-18T06:34:37;24.70;;;11.93;;
17420;SDS011;8828;48.800;9.540;2022-12-18T06:37:05;23.17;;;11.07;;
17420;SDS011;8828;48.800;9.540;2022-12-18T06:39:33;20.67;;;11.10;;
17420;SDS011;8828;48.800;9.540;2022-12-18T06:42:02;35.37;;;14.83;;
17420;SDS011;8828;48.800;9.540;2022-12-18T06:44:30;32.97;;;12.60;;
17420;SDS011;8828;48.800;9.540;2022-12-18T06:47:00;23.53;;;11.10;;
17420;SDS011;8828;48.800;9.540;2022-12-18T06:49:28;26.17;;;12.10;;
17420;SDS011;8828;48.800;9.540;2022-12-18T06:51:56;20.57;;;10.77;;
17420;SDS011;8828;48.800;9.540;2022-12-18T06:54:24;23.53;;;11.23;;
17420;SDS011;8828;48.800;9.540;2022-12-18T06:56:52;25.30;;;12.40;;
17420;SDS011;8828;48.800;9.540;2022-12-18T06:59:20;33.57;;;14.77;;
17420;SDS011;8828;48.800;9.540;2022-12-18T07:01:48;34.47;;;14.70;;
17420;SDS011;8828;48.800;9.540;2022-12-18T07:04:17;27.47;;;12.10;;
17420;SDS011;8828;48.800;9.540;2022-12-18T07:06:45;26.43;;;11.93;;
17420;SDS011;8828;48.800;9.540;2022-12-18T07:09:13;25.83;;;11.83;;
17420;SDS011;8828;48.800;9.540;2022-12-18T07:11:41;25.80;;;11.63;;
17420;SDS011;8828;48.800;9.540;2022-12-18T07:14:09;21.33;;;9.90;;
17420;SDS011;8828;48.800;9.540;2022-12-18T07:16:37;26.33;;;11.30;;
17420;SDS011;8828;48.800;9.540;2022-12-18T07:19:05;25.60;;;11.70;;
17420;SDS011;8828;48.800;9.540;2022-12-18T07:21:34;27.37;;;11.73;;
17420;SDS011;8828;48.800;9.540;2022-12-18T07:24:03;29.23;;;12.23;;
17420;SDS011;8828;48.800;9.540;2022-12-18T07:26:31;31.10;;;14.90;;
17420;SDS011;8828;48.800;9.540;2022-12-18T07:28:59;154.20;;;58.60;;
17420;SDS011;8828;48.800;9.540;2022-12-18T07:31:27;51.07;;;21.23;;
17420;SDS011;8828;48.800;9.540;2022-12-18T07:33:56;31.30;;;13.47;;
17420;SDS011;8828;48.800;9.540;2022-12-18T07:36:24;25.23;;;12.37;;
17420;SDS011;8828;48.800;9.540;2022-12-18T07:38:54;26.57;;;12.60;;
17420;SDS011;8828;48.800;9.540;2022-12-18T07:41:22;25.90;;;12.70;;
17420;SDS011;8828;48.800;9.540;2022-12-18T07:43:50;27.83;;;12.13;;
17420;SDS011;8828;48.800;9.540;2022-12-18T07:46:18;26.47;;;12.50;;
17420;SDS011;8828;48.800;9.540;2022-12-18T07:48:47;28.63;;;13.20;;
17420;SDS011;8828;48.800;9.540;2022-12-18T07:51:15;27.63;;;13.50;;
17420;SDS011;8828;48.800;9.540;2022-12-18T07:53:44;27.30;;;11.83;;
17420;SDS011;8828;48.800;9.540;2022-12-18T07:56:19;30.73;;;13.60;;
17420;SDS011;8828;48.800;9.540;2022-12-18T07:58:53;44.23;;;18.77;;
17420;SDS011;8828;48.800;9.540;2022-12-18T08:01:22;31.07;;;14.57;;
17420;SDS011;8828;48.800;9.540;2022-12-18T08:03:50;29.67;;;13.07;;
17420;SDS011;8828;48.800;9.540;2022-12-18T08:06:18;30.50;;;14.10;;
17420;SDS011;8828;48.800;9.540;2022-12-18T08:08:50;31.27;;;12.97;;
17420;SDS011;8828;48.800;9.540;2022-12-18T08:11:20;26.20;;;12.73;;
17420;SDS011;8828;48.800;9.540;2022-12-18T08:13:48;31.77;;;13.77;;
17420;SDS011;8828;48.800;9.540;2022-12-18T08:16:16;36.57;;;14.43;;
17420;SDS011;8828;48.800;9.540;2022-12-18T08:18:45;28.00;;;12.97;;
17420;SDS011;8828;48.800;9.540;2022-12-18T08:21:15;30.33;;;13.57;;
17420;SDS011;8828;48.800;9.540;2022-12-18T08:23:45;30.07;;;12.40;;
17420;SDS011;8828;48.800;9.540;2022-12-18T08:26:15;32.50;;;13.93;;
17420;SDS011;8828;48.800;9.540;2022-12-18T08:28:45;32.80;;;13.43;;
17420;SDS011;8828;48.800;9.540;2022-12-18T08:31:14;30.60;;;13.67;;
17420;SDS011;8828;48.800;9.540;2022-12-18T08:33:42;32.20;;;13.70;;
17420;SDS011;8828;48.800;9.540;2022-12-18T08:36:10;42.17;;;17.60;;
17420;SDS011;8828;48.800;9.540;2022-12-18T08:38:38;39.10;;;17.13;;
17420;SDS011;8828;48.800;9.540;2022-12-18T08:41:07;39.00;;;17.57;;
17420;SDS011;8828;48.800;9.540;2022-12-18T08:43:37;34.13;;;13.97;;
17420;SDS011;8828;48.800;9.540;2022-12-18T08:46:25;32.97;;;13.40;;
17420;SDS011;8828;48.800;9.540;2022-12-18T08:48:54;29.57;;;13.23;;
17420;SDS011;8828;48.800;9.540;2022-12-18T08:51:22;27.47;;;12.70;;
17420;SDS011;8828;48.800;9.540;2022-12-18T08:53:50;29.73;;;12.70;;
17420;SDS011;8828;48.800;9.540;2022-12-18T08:56:18;27.03;;;12.10;;
17420;SDS011;8828;48.800;9.540;2022-12-18T08:58:46;32.37;;;13.87;;
17420;SDS011;8828;48.800;9.540;2022-12-18T09:01:14;32.93;;;12.77;;
17420;SDS011;8828;48.800;9.540;2022-12-18T09:03:46;24.77;;;12.30;;
17420;SDS011;8828;48.800;9.540;2022-12-18T09:06:15;29.70;;;12.07;;
17420;SDS011;8828;48.800;9.540;2022-12-18T09:08:43;29.33;;;11.83;;
17420;SDS011;8828;48.800;9.540;2022-12-18T09:11:13;33.43;;;12.20;;
17420;SDS011;8828;48.800;9.540;2022-12-18T09:13:42;29.07;;;11.97;;
17420;SDS011;8828;48.800;9.540;2022-12-18T09:16:10;29.77;;;11.77;;
17420;SDS011;8828;48.800;9.540;2022-12-18T09:18:38;27.37;;;12.73;;
17420;SDS011;8828;48.800;9.540;2022-12-18T09:21:09;25.33;;;11.13;;
17420;SDS011;8828;48.800;9.540;2022-12-18T09:23:38;25.37;;;10.57;;
17420;SDS011;8828;48.800;9.540;2022-12-18T09:26:07;20.77;;;8.93;;
17420;SDS011;8828;48.800;9.540;2022-12-18T09:28:35;30.67;;;11.00;;
17420;SDS011;8828;48.800;9.540;2022-12-18T09:31:04;24.33;;;8.80;;
17420;SDS011;8828;48.800;9.540;2022-12-18T09:33:34;20.43;;;8.10;;
17420;SDS011;8828;48.800;9.540;2022-12-18T09:36:03;20.73;;;8.33;;
17420;SDS011;8828;48.800;9.540;2022-12-18T09:38:34;23.97;;;8.40;;
17420;SDS011;8828;48.800;9.540;2022-12-18T09:41:05;20.33;;;8.23;;
17420;SDS011;8828;48.800;9.540;2022-12-18T09:43:43;23.60;;;8.03;;
17420;SDS011;8828;48.800;9.540;2022-12-18T09:46:15;20.43;;;8.90;;
17420;SDS011;8828;48.800;9.540;2022-12-18T09:48:47;18.40;;;7.63;;
17420;SDS011;8828;48.800;9.540;2022-12-18T09:51:18;22.00;;;8.27;;
17420;SDS011;8828;48.800;9.540;2022-12-18T09:53:52;20.53;;;8.40;;
17420;SDS011;8828;48.800;9.540;2022-12-18T09:56:24;33.20;;;12.70;;
17420;SDS011;8828;48.800;9.540;2022-12-18T09:58:57;19.77;;;7.73;;
17420;SDS011;8828;48.800;9.540;2022-12-18T10:01:26;19.60;;;7.03;;
17420;SDS011;8828;48.800;9.540;2022-12-18T10:04:08;22.43;;;8.43;;
17420;SDS011;8828;48.800;9.540;2022-12-18T10:06:38;17.90;;;8.60;;
17420;SDS011;8828;48.800;9.540;2022-12-18T10:09:18;23.57;;;8.70;;
17420;SDS011;8828;48.800;9.540;2022-12-18T10:11:53;23.63;;;8.53;;
17420;SDS011;8828;48.800;9.540;2022-12-18T10:14:34;18.03;;;7.37;;
17420;SDS011;8828;48.800;9.540;2022-12-18T10:17:11;20.47;;;7.73;;
17420;SDS011;8828;48.800;9.540;2022-12-18T10:19:47;21.80;;;8.33;;
17420;SDS011;8828;48.800;9.540;2022-12-18T10:22:22;28.27;;;8.63;;
17420;SDS011;8828;48.800;9.540;2022-12-18T10:25:01;23.00;;;7.90;;
17420;SDS011;8828;48.800;9.540;2022-12-18T10:27:37;20.47;;;7.93;;
17420;SDS011;8828;48.800;9.540;2022-12-18T10:30:07;81.50;;;26.53;;
17420;SDS011;8828;48.800;9.540;2022-12-18T10:32:40;32.23;;;11.70;;
17420;SDS011;8828;48.800;9.540;2022-12-18T10:35:11;21.63;;;8.53;;
17420;SDS011;8828;48.800;9.540;2022-12-18T10:37:59;18.47;;;8.20;;
17420;SDS011;8828;48.800;9.540;2022-12-18T10:40:30;22.33;;;8.33;;
17420;SDS011;8828;48.800;9.540;2022-12-18T10:43:04;20.17;;;7.90;;
17420;SDS011;8828;48.800;9.540;2022-12-18T10:45:37;25.43;;;8.30;;
17420;SDS011;8828;48.800;9.540;2022-12-18T10:48:17;21.93;;;8.20;;
17420;SDS011;8828;48.800;9.540;2022-12-18T10:50:46;18.87;;;7.00;;
17420;SDS011;8828;48.800;9.540;2022-12-18T10:53:38;19.80;;;7.57;;
17420;SDS011;8828;48.800;9.540;2022-12-18T10:56:11;17.87;;;8.20;;
17420;SDS011;8828;48.800;9.540;2022-12-18T10:58:39;26.60;;;8.67;;
17420;SDS011;8828;48.800;9.540;2022-12-18T11:01:08;21.30;;;7.97;;
17420;SDS011;8828;48.800;9.540;2022-12-18T11:03:39;22.90;;;8.63;;
17420;SDS011;8828;48.800;9.540;2022-12-18T11:06:09;19.50;;;8.37;;
17420;SDS011;8828;48.800;9.540;2022-12-18T11:08:38;19.47;;;8.00;;
17420;SDS011;8828;48.800;9.540;2022-12-18T11:11:16;22.10;;;8.83;;
17420;SDS011;8828;48.800;9.540;2022-12-18T11:13:53;16.07;;;6.93;;
17420;SDS011;8828;48.800;9.540;2022-12-18T11:16:29;74.00;;;25.80;;
17420;SDS011;8828;48.800;9.540;2022-12-18T11:19:09;31.60;;;11.50;;
17420;SDS011;8828;48.800;9.540;2022-12-18T11:21:47;20.10;;;8.30;;
17420;SDS011;8828;48.800;9.540;2022-12-18T11:24:19;22.40;;;8.40;;
17420;SDS011;8828;48.800;9.540;2022-12-18T11:26:55;17.60;;;7.47;;
17420;SDS011;8828;48.800;9.540;2022-12-18T11:29:28;20.27;;;8.33;;
17420;SDS011;8828;48.800;9.540;2022-12-18T11:32:13;16.57;;;7.07;;
17420;SDS011;8828;48.800;9.540;2022-12-18T11:34:52;19.37;;;7.93;;
17420;SDS011;8828;48.800;9.540;2022-12-18T11:37:26;22.07;;;8.17;;
17420;SDS011;8828;48.800;9.540;2022-12-18T11:39:56;21.87;;;7.53;;
17420;SDS011;8828;48.800;9.540;2022-12-18T11:42:30;17.60;;;7.63;;
17420;SDS011;8828;48.800;9.540;2022-12-18T11:45:08;18.13;;;7.40;;
17420;SDS011;8828;48.800;9.540;2022-12-18T11:47:54;18.60;;;7.30;;
17420;SDS011;8828;48.800;9.540;2022-12-18T11:50:26;20.30;;;7.50;;
17420;SDS011;8828;48.800;9.540;2022-12-18T11:52:59;14.83;;;7.40;;
17420;SDS011;8828;48.800;9.540;2022-12-18T11:55:33;23.33;;;9.10;;
17420;SDS011;8828;48.800;9.540;2022-12-18T11:58:12;22.27;;;8.37;;
17420;SDS011;8828;48.800;9.540;2022-12-18T12:01:07;18.53;;;6.87;;
17420;SDS011;8828;48.800;9.540;2022-12-18T12:06:45;22.77;;;9.60;;
17420;SDS011;8828;48.800;9.540;2022-12-18T12:09:28;25.17;;;8.80;;
17420;SDS011;8828;48.800;9.540;2022-12-18T12:12:09;23.50;;;8.77;;
17420;SDS011;8828;48.800;9.540;2022-12-18T12:14:50;19.60;;;8.43;;
17420;SDS011;8828;48.800;9.540;2022-12-18T12:17:32;23.63;;;8.10;;
17420;SDS011;8828;48.800;9.540;2022-12-18T12:20:09;18.23;;;8.50;;
17420;SDS011;8828;48.800;9.540;2022-12-18T12:22:46;22.20;;;8.93;;
17420;SDS011;8828;48.800;9.540;2022-12-18T12:25:30;21.87;;;8.73;;
17420;SDS011;8828;48.800;9.540;2022-12-18T12:28:10;20.40;;;8.27;;
17420;SDS011;8828;48.800;9.540;2022-12-18T12:30:51;24.23;;;9.27;;
17420;SDS011;8828;48.800;9.540;2022-12-18T12:33:31;21.77;;;10.50;;
17420;SDS011;8828;48.800;9.540;2022-12-18T12:36:09;17.80;;;8.17;;
17420;SDS011;8828;48.800;9.540;2022-12-18T12:38:46;25.27;;;9.00;;
17420;SDS011;8828;48.800;9.540;2022-12-18T12:41:18;24.63;;;8.10;;
17420;SDS011;8828;48.800;9.540;2022-12-18T12:44:06;22.80;;;9.50;;
17420;SDS011;8828;48.800;9.540;2022-12-18T12:46:40;21.83;;;7.97;;
17420;SDS011;8828;48.800;9.540;2022-12-18T12:49:12;18.07;;;7.40;;
17420;SDS011;8828;48.800;9.540;2022-12-18T12:51:43;18.60;;;8.43;;
17420;SDS011;8828;48.800;9.540;2022-12-18T12:54:15;31.30;;;12.50;;
17420;SDS011;8828;48.800;9.540;2022-12-18T12:56:48;37.27;;;13.43;;
17420;SDS011;8828;48.800;9.540;2022-12-18T12:59:22;23.10;;;9.67;;
17420;SDS011;8828;48.800;9.540;2022-12-18T13:01:57;19.43;;;7.47;;
17420;SDS011;8828;48.800;9.540;2022-12-18T13:04:32;19.40;;;7.83;;
17420;SDS011;8828;48.800;9.540;2022-12-18T13:07:05;21.47;;;8.50;;
17420;SDS011;8828;48.800;9.540;2022-12-18T13:12:53;18.33;;;7.37;;
17420;SDS011;8828;48.800;9.540;2022-12-18T13:15:26;24.43;;;10.03;;
17420;SDS011;8828;48.800;9.540;2022-12-18T13:18:06;21.77;;;8.40;;
17420;SDS011;8828;48.800;9.540;2022-12-18T13:20:47;20.17;;;8.43;;
17420;SDS011;8828;48.800;9.540;2022-12-18T13:23:27;22.57;;;7.87;;
17420;SDS011;8828;48.800;9.540;2022-12-18T13:25:58;18.07;;;7.20;;
17420;SDS011;8828;48.800;9.540;2022-12-18T13:28:49;23.93;;;8.07;;
17420;SDS011;8828;48.800;9.540;2022-12-18T13:34:42;16.53;;;7.77;;
17420;SDS011;8828;48.800;9.540;2022-12-18T13:43:24;21.27;;;8.93;;
17420;SDS011;8828;48.800;9.540;2022-12-18T13:46:02;22.93;;;9.07;;
17420;SDS011;8828;48.800;9.540;2022-12-18T13:48:33;19.13;;;7.40;;
17420;SDS011;8828;48.800;9.540;2022-12-18T13:51:05;19.37;;;8.33;;
17420;SDS011;8828;48.800;9.540;2022-12-18T13:53:36;21.37;;;8.47;;
17420;SDS011;8828;48.800;9.540;2022-12-18T13:56:09;22.77;;;9.20;;
17420;SDS011;8828;48.800;9.540;2022-12-18T13:58:43;14.97;;;7.67;;
17420;SDS011;8828;48.800;9.540;2022-12-18T14:01:21;18.23;;;7.93;;
17420;SDS011;8828;48.800;9.540;2022-12-18T14:04:08;19.83;;;8.27;;
17420;SDS011;8828;48.800;9.540;2022-12-18T14:06:38;20.80;;;8.53;;
17420;SDS011;8828;48.800;9.540;2022-12-18T14:09:10;22.03;;;8.77;;
17420;SDS011;8828;48.800;9.540;2022-12-18T14:11:46;20.37;;;8.67;;
17420;SDS011;8828;48.800;9.540;2022-12-18T14:14:17;17.13;;;8.40;;
17420;SDS011;8828;48.800;9.540;2022-12-18T14:16:46;23.77;;;10.07;;
17420;SDS011;8828;48.800;9.540;2022-12-18T14:19:15;37.40;;;14.00;;
17420;SDS011;8828;48.800;9.540;2022-12-18T14:21:46;29.00;;;12.13;;
17420;SDS011;8828;48.800;9.540;2022-12-18T14:24:15;30.40;;;11.70;;
17420;SDS011;8828;48.800;9.540;2022-12-18T14:26:45;30.70;;;15.20;;
17420;SDS011;8828;48.800;9.540;2022-12-18T14:29:20;21.57;;;10.17;;
17420;SDS011;8828;48.800;9.540;2022-12-18T14:32:09;24.80;;;9.63;;
17420;SDS011;8828;48.800;9.540;2022-12-18T14:34:43;21.33;;;9.27;;
17420;SDS011;8828;48.800;9.540;2022-12-18T14:37:14;18.57;;;8.27;;
17420;SDS011;8828;48.800;9.540;2022-12-18T14:39:53;22.37;;;8.77;;
17420;SDS011;8828;48.800;9.540;2022-12-18T14:42:23;21.37;;;8.93;;
17420;SDS011;8828;48.800;9.540;2022-12-18T14:48:08;23.53;;;8.67;;
17420;SDS011;8828;48.800;9.540;2022-12-18T14:50:55;30.77;;;14.23;;
17420;SDS011;8828;48.800;9.540;2022-12-18T14:56:21;27.57;;;9.60;;
17420;SDS011;8828;48.800;9.540;2022-12-18T14:58:52;18.00;;;8.33;;
17420;SDS011;8828;48.800;9.540;2022-12-18T15:01:23;21.80;;;10.23;;
17420;SDS011;8828;48.800;9.540;2022-12-18T15:03:53;23.27;;;9.63;;
17420;SDS011;8828;48.800;9.540;2022-12-18T15:06:30;24.87;;;10.03;;
17420;SDS011;8828;48.800;9.540;2022-12-18T15:09:02;20.67;;;9.03;;
17420;SDS011;8828;48.800;9.540;2022-12-18T15:11:43;21.03;;;7.97;;
17420;SDS011;8828;48.800;9.540;2022-12-18T15:17:13;20.20;;;8.30;;
17420;SDS011;8828;48.800;9.540;2022-12-18T15:19:45;15.73;;;6.73;;
17420;SDS011;8828;48.800;9.540;2022-12-18T15:22:22;20.47;;;7.93;;
17420;SDS011;8828;48.800;9.540;2022-12-18T15:24:54;19.93;;;8.33;;
17420;SDS011;8828;48.800;9.540;2022-12-18T15:27:25;19.10;;;7.90;;
17420;SDS011;8828;48.800;9.540;2022-12-18T15:32:47;16.60;;;7.80;;